createdAt,value
2018-06-01T00:02:17.597Z,99.90
2018-06-01T00:04:45.190Z,99.90
2018-06-01T00:07:12.804Z,99.90
2018-06-01T00:09:41.189Z,99.90
2018-06-01T00:12:08.794Z,99.90
2018-06-01T00:14:36.422Z,99.90
2018-06-01T00:17:04.034Z,99.90
2018-06-01T00:19:31.635Z,99.90
2018-06-01T00:21:59.231Z,99.90
2018-06-01T00:24:27.634Z,99.90
2018-06-01T00:26:55.246Z,99.90
2018-06-01T00:29:22.837Z,99.90
2018-06-01T00:31:50.486Z,99.90
2018-06-01T00:34:18.114Z,99.90
2018-06-01T00:36:45.751Z,99.90
2018-06-01T00:39:13.355Z,99.90
2018-06-01T00:41:40.964Z,99.90
2018-06-01T00:44:08.554Z,99.90
2018-06-01T00:46:36.157Z,99.90
2018-06-01T00:49:03.761Z,99.90
2018-06-01T00:51:31.358Z,99.90
2018-06-01T00:53:58.962Z,99.90
2018-06-01T00:56:26.558Z,99.90
2018-06-01T00:58:54.156Z,99.90
2018-06-01T01:01:21.766Z,99.90
2018-06-01T01:03:49.404Z,99.90
2018-06-01T01:06:17.022Z,99.90
2018-06-01T01:08:44.666Z,99.90
2018-06-01T01:11:12.280Z,99.90
2018-06-01T01:13:39.874Z,99.90
2018-06-01T01:16:07.565Z,99.90
2018-06-01T01:18:35.166Z,99.90
2018-06-01T01:21:02.753Z,99.90
2018-06-01T01:23:30.358Z,99.90
2018-06-01T01:25:58.740Z,99.90
2018-06-01T01:28:27.102Z,99.90
2018-06-01T01:30:54.730Z,99.90
2018-06-01T01:33:22.326Z,99.90
2018-06-01T01:35:49.922Z,99.90
2018-06-01T01:38:17.530Z,99.90
2018-06-01T01:40:50.961Z,99.90
2018-06-01T01:43:18.594Z,99.90
2018-06-01T01:45:46.202Z,99.90
2018-06-01T01:48:13.798Z,99.90
2018-06-01T01:50:41.410Z,99.90
2018-06-01T01:53:09.034Z,99.90
2018-06-01T01:55:36.630Z,99.90
2018-06-01T01:58:04.291Z,99.90
2018-06-01T02:00:31.901Z,99.90
2018-06-01T02:02:59.494Z,99.90
2018-06-01T02:05:27.902Z,99.90
2018-06-01T02:07:56.278Z,99.90
2018-06-01T02:10:23.878Z,99.90
2018-06-01T02:12:51.529Z,99.90
2018-06-01T02:15:19.130Z,99.90
2018-06-01T02:17:46.766Z,99.90
2018-06-01T02:20:14.415Z,99.90
2018-06-01T02:22:42.015Z,99.90
2018-06-01T02:25:10.382Z,99.90
2018-06-01T02:27:38.011Z,99.90
2018-06-01T02:30:05.616Z,99.90
2018-06-01T02:32:33.237Z,99.90
2018-06-01T02:35:00.851Z,99.90
2018-06-01T02:37:28.470Z,99.90
2018-06-01T02:39:56.073Z,99.90
2018-06-01T02:42:23.694Z,99.90
2018-06-01T02:44:51.282Z,99.90
2018-06-01T02:47:19.637Z,99.90
2018-06-01T02:49:47.269Z,99.90
2018-06-01T02:52:14.881Z,99.90
2018-06-01T02:54:43.300Z,99.90
2018-06-01T02:57:10.954Z,99.90
2018-06-01T02:59:38.551Z,99.90
2018-06-01T03:02:06.186Z,99.90
2018-06-01T03:04:33.793Z,99.90
2018-06-01T03:07:18.215Z,99.90
2018-06-01T03:09:46.730Z,99.90
2018-06-01T03:12:15.091Z,99.90
2018-06-01T03:14:42.686Z,99.90
2018-06-01T03:17:10.295Z,99.90
2018-06-01T03:19:37.885Z,99.90
2018-06-01T03:22:06.274Z,99.90
2018-06-01T03:24:33.926Z,99.90
2018-06-01T03:27:02.281Z,99.90
2018-06-01T03:29:29.875Z,99.90
2018-06-01T03:31:58.267Z,99.90
2018-06-01T03:34:25.910Z,99.90
2018-06-01T03:36:54.266Z,99.90
2018-06-01T03:39:21.870Z,99.90
2018-06-01T03:41:49.466Z,99.90
2018-06-01T03:44:17.065Z,99.90
2018-06-01T03:46:44.694Z,99.90
2018-06-01T03:49:12.293Z,99.90
2018-06-01T03:51:40.667Z,99.90
2018-06-01T03:54:08.282Z,99.90
2018-06-01T03:56:35.894Z,99.90
2018-06-01T03:59:04.256Z,99.90
2018-06-01T04:01:31.900Z,99.90
2018-06-01T04:03:59.493Z,99.90
2018-06-01T04:06:27.091Z,99.90
2018-06-01T04:08:54.702Z,99.90
2018-06-01T04:11:22.338Z,99.90
2018-06-01T04:13:49.962Z,99.90
2018-06-01T04:16:17.631Z,99.90
2018-06-01T04:18:45.219Z,99.90
2018-06-01T04:21:12.813Z,99.90
2018-06-01T04:23:40.452Z,99.90
2018-06-01T04:26:08.054Z,99.90
2018-06-01T04:28:35.650Z,99.90
2018-06-01T04:31:03.255Z,99.90
2018-06-01T04:33:31.611Z,99.90
2018-06-01T04:35:59.243Z,99.90
2018-06-01T04:38:26.870Z,99.90
2018-06-01T04:40:54.494Z,99.90
2018-06-01T04:43:22.091Z,99.90
2018-06-01T04:45:49.699Z,99.90
2018-06-01T04:48:17.382Z,99.90
2018-06-01T04:50:44.982Z,99.90
2018-06-01T04:53:12.586Z,99.90
2018-06-01T04:55:40.182Z,99.90
2018-06-01T04:58:08.554Z,99.90
2018-06-01T05:00:36.922Z,99.90
2018-06-01T05:03:05.281Z,99.90
2018-06-01T05:05:32.877Z,99.90
2018-06-01T05:08:00.506Z,99.90
2018-06-01T05:10:28.107Z,99.90
2018-06-01T05:12:55.738Z,99.90
2018-06-01T05:15:24.110Z,99.90
2018-06-01T05:17:51.729Z,99.90
2018-06-01T05:20:19.391Z,99.90
2018-06-01T05:22:46.995Z,99.90
2018-06-01T05:25:14.597Z,99.90
2018-06-01T05:27:42.194Z,99.90
2018-06-01T05:30:09.806Z,99.90
2018-06-01T05:32:37.403Z,99.90
2018-06-01T05:35:05.002Z,99.90
2018-06-01T05:37:33.398Z,99.90
2018-06-01T05:40:01.754Z,99.90
2018-06-01T05:42:29.351Z,99.90
2018-06-01T05:44:56.963Z,99.90
2018-06-01T05:47:24.571Z,99.90
2018-06-01T05:49:52.182Z,99.90
2018-06-01T05:52:19.916Z,99.90
2018-06-01T05:54:47.545Z,99.90
2018-06-01T05:57:15.141Z,99.90
2018-06-01T05:59:42.746Z,99.90
2018-06-01T06:02:10.351Z,99.90
2018-06-01T06:04:37.967Z,99.90
2018-06-01T06:07:06.371Z,99.90
2018-06-01T06:09:33.968Z,99.90
2018-06-01T06:12:01.558Z,99.90
2018-06-01T06:14:29.209Z,99.90
2018-06-01T06:16:56.834Z,99.90
2018-06-01T06:19:24.425Z,99.90
2018-06-01T06:21:52.038Z,99.90
2018-06-01T06:24:19.623Z,99.90
2018-06-01T06:26:47.253Z,99.90
2018-06-01T06:29:14.870Z,99.90
2018-06-01T06:31:42.470Z,99.90
2018-06-01T06:34:10.066Z,99.90
2018-06-01T06:36:37.671Z,99.90
2018-06-01T06:39:06.242Z,99.90
2018-06-01T06:41:34.609Z,99.90
2018-06-01T06:44:02.219Z,99.90
2018-06-01T06:46:29.821Z,99.90
2018-06-01T06:51:35.180Z,99.90
2018-06-01T06:54:02.797Z,99.90
2018-06-01T06:56:30.428Z,99.90
2018-06-01T06:58:58.793Z,99.90
2018-06-01T07:01:26.403Z,99.90
2018-06-01T07:03:53.990Z,99.90
2018-06-01T07:06:21.598Z,99.90
2018-06-01T07:08:49.193Z,99.90
2018-06-01T07:11:16.794Z,99.90
2018-06-01T07:13:44.407Z,99.90
2018-06-01T07:16:11.997Z,99.90
2018-06-01T07:18:39.590Z,99.90
2018-06-01T07:21:07.985Z,99.90
2018-06-01T07:23:35.610Z,99.90
2018-06-01T07:26:03.201Z,99.90
2018-06-01T07:28:30.807Z,99.90
2018-06-01T07:30:58.407Z,99.90
2018-06-01T07:33:26.055Z,99.90
2018-06-01T07:35:53.667Z,99.90
2018-06-01T07:38:21.257Z,99.90
2018-06-01T07:40:48.858Z,99.90
2018-06-01T07:43:16.486Z,99.90
2018-06-01T07:45:44.089Z,99.90
2018-06-01T07:48:11.682Z,99.90
2018-06-01T07:50:39.285Z,99.90
2018-06-01T07:53:06.883Z,99.90
2018-06-01T07:55:34.475Z,99.90
2018-06-01T07:58:02.086Z,99.90
2018-06-01T08:00:29.695Z,99.90
2018-06-01T08:02:57.289Z,99.90
2018-06-01T08:05:25.662Z,99.90
2018-06-01T08:07:54.025Z,99.90
2018-06-01T08:10:21.623Z,99.90
2018-06-01T08:12:50.047Z,99.90
2018-06-01T08:15:17.646Z,99.90
2018-06-01T08:17:46.006Z,99.90
2018-06-01T08:20:13.615Z,99.90
2018-06-01T08:22:41.215Z,99.90
2018-06-01T08:25:08.816Z,99.90
2018-06-01T08:27:36.424Z,99.90
2018-06-01T08:30:04.790Z,99.90
2018-06-01T08:32:32.443Z,99.90
2018-06-01T08:35:00.065Z,99.90
2018-06-01T08:37:28.512Z,99.90
2018-06-01T08:39:56.114Z,99.90
2018-06-01T08:42:23.755Z,99.90
2018-06-01T08:44:51.357Z,99.90
2018-06-01T08:47:18.955Z,99.90
2018-06-01T08:49:46.562Z,99.90
2018-06-01T08:52:14.168Z,99.90
2018-06-01T08:54:41.758Z,99.90
2018-06-01T08:57:09.373Z,99.90
2018-06-01T08:59:37.018Z,99.90
2018-06-01T09:02:04.635Z,99.90
2018-06-01T09:04:32.311Z,99.90
2018-06-01T09:06:59.881Z,99.90
2018-06-01T09:09:27.473Z,99.90
2018-06-01T09:11:55.078Z,99.90
2018-06-01T09:14:23.450Z,99.90
2018-06-01T09:16:51.141Z,99.90
2018-06-01T09:19:18.728Z,99.90
2018-06-01T09:21:46.351Z,99.90
2018-06-01T09:24:14.709Z,99.90
2018-06-01T09:26:42.315Z,99.90
2018-06-01T09:29:09.910Z,99.90
2018-06-01T09:31:37.510Z,99.90
2018-06-01T09:34:05.915Z,99.90
2018-06-01T09:36:33.554Z,99.90
2018-06-01T09:39:01.150Z,99.90
2018-06-01T09:41:28.755Z,99.90
2018-06-01T09:43:57.137Z,99.90
2018-06-01T09:46:25.513Z,99.90
2018-06-01T09:48:53.882Z,99.90
2018-06-01T09:51:21.496Z,99.90
2018-06-01T09:53:49.089Z,99.90
2018-06-01T09:56:16.694Z,99.90
2018-06-01T09:58:44.292Z,99.90
2018-06-01T10:01:11.896Z,99.90
2018-06-01T10:03:40.265Z,99.90
2018-06-01T10:06:08.630Z,99.90
2018-06-01T10:08:36.247Z,99.90
2018-06-01T10:11:08.831Z,99.90
2018-06-01T10:13:36.454Z,99.90
2018-06-01T10:16:04.863Z,99.90
2018-06-01T10:18:33.271Z,99.90
2018-06-01T10:21:00.904Z,99.90
2018-06-01T10:23:29.281Z,99.90
2018-06-01T10:25:56.882Z,99.90
2018-06-01T10:28:24.477Z,99.90
2018-06-01T10:30:52.102Z,99.90
2018-06-01T10:33:19.732Z,99.90
2018-06-01T10:35:47.322Z,99.90
2018-06-01T10:38:14.955Z,99.90
2018-06-01T10:40:42.578Z,99.90
2018-06-01T10:43:10.198Z,99.90
2018-06-01T10:45:37.833Z,99.90
2018-06-01T10:48:05.463Z,99.90
2018-06-01T10:50:33.083Z,99.90
2018-06-01T10:53:00.706Z,99.90
2018-06-01T10:55:28.313Z,99.90
2018-06-01T10:57:56.682Z,99.90
2018-06-01T11:00:24.283Z,99.90
2018-06-01T11:02:51.902Z,99.90
2018-06-01T11:05:19.510Z,99.90
2018-06-01T11:07:47.148Z,99.90
2018-06-01T11:10:14.800Z,99.90
2018-06-01T11:12:42.423Z,99.90
2018-06-01T11:15:10.058Z,99.90
2018-06-01T11:17:37.670Z,99.90
2018-06-01T11:20:05.270Z,99.90
2018-06-01T11:22:32.862Z,99.40
2018-06-01T11:25:01.271Z,99.90
2018-06-01T11:27:28.899Z,99.90
2018-06-01T11:29:56.495Z,99.90
2018-06-01T11:32:24.171Z,99.90
2018-06-01T11:34:51.756Z,99.90
2018-06-01T11:37:19.359Z,99.90
2018-06-01T11:39:46.967Z,99.90
2018-06-01T11:42:15.345Z,99.90
2018-06-01T11:44:42.945Z,99.90
2018-06-01T11:47:10.591Z,99.90
2018-06-01T11:49:38.237Z,99.90
2018-06-01T11:52:05.906Z,99.90
2018-06-01T11:54:33.537Z,99.90
2018-06-01T11:57:01.901Z,99.90
2018-06-01T11:59:29.510Z,99.90
2018-06-01T12:01:57.113Z,99.90
2018-06-01T12:04:24.714Z,99.90
2018-06-01T12:06:52.326Z,99.90
2018-06-01T12:09:20.750Z,99.90
2018-06-01T12:11:48.385Z,99.90
2018-06-01T12:14:16.026Z,99.90
2018-06-01T12:16:43.656Z,99.90
2018-06-01T12:19:11.245Z,99.90
2018-06-01T12:21:38.841Z,99.90
2018-06-01T12:24:06.450Z,99.90
2018-06-01T12:26:34.055Z,99.90
2018-06-01T12:29:01.738Z,99.90
2018-06-01T12:31:29.347Z,99.90
2018-06-01T12:33:56.935Z,99.90
2018-06-01T12:36:24.559Z,99.90
2018-06-01T12:38:52.174Z,99.90
2018-06-01T12:41:19.782Z,99.90
2018-06-01T12:43:47.382Z,99.90
2018-06-01T12:46:14.996Z,99.90
2018-06-01T12:48:42.594Z,99.90
2018-06-01T12:51:10.195Z,99.90
2018-06-01T12:53:37.840Z,99.90
2018-06-01T12:56:06.211Z,98.30
2018-06-01T12:58:33.834Z,98.30
2018-06-01T13:01:01.446Z,98.00
2018-06-01T13:03:29.060Z,98.30
2018-06-01T13:05:57.437Z,95.50
2018-06-01T13:08:25.079Z,95.50
2018-06-01T13:10:52.672Z,93.50
2018-06-01T13:13:21.033Z,91.80
2018-06-01T13:15:48.645Z,91.80
2018-06-01T13:18:16.234Z,92.10
2018-06-01T13:20:43.917Z,88.90
2018-06-01T13:23:11.555Z,88.30
2018-06-01T13:25:39.153Z,89.80
2018-06-01T13:28:06.763Z,84.10
2018-06-01T13:30:34.362Z,85.60
2018-06-01T13:33:01.960Z,84.30
2018-06-01T13:35:29.551Z,83.00
2018-06-01T13:37:57.187Z,83.40
2018-06-01T13:40:24.790Z,85.70
2018-06-01T13:42:52.390Z,83.10
2018-06-01T13:45:20.773Z,79.60
2018-06-01T13:47:48.387Z,79.50
2018-06-01T13:50:15.982Z,80.30
2018-06-01T13:52:44.483Z,75.60
2018-06-01T13:55:12.079Z,75.90
2018-06-01T13:57:39.712Z,74.50
2018-06-01T14:00:07.349Z,74.70
2018-06-01T14:02:35.706Z,74.30
2018-06-01T14:05:03.320Z,74.40
2018-06-01T14:07:30.930Z,71.60
2018-06-01T14:09:59.290Z,72.10
2018-06-01T14:12:26.920Z,72.10
2018-06-01T14:14:54.527Z,71.80
2018-06-01T14:17:22.890Z,73.20
2018-06-01T14:19:50.489Z,73.20
2018-06-01T14:22:18.885Z,69.80
2018-06-01T14:24:46.562Z,69.80
2018-06-01T14:27:14.194Z,70.60
2018-06-01T14:29:41.846Z,69.70
2018-06-01T14:32:09.481Z,69.40
2018-06-01T14:34:37.117Z,68.50
2018-06-01T14:37:04.785Z,68.70
2018-06-01T14:39:32.374Z,68.20
2018-06-01T14:42:00.735Z,72.70
2018-06-01T14:44:28.335Z,72.20
2018-06-01T14:46:55.984Z,66.30
2018-06-01T14:49:23.595Z,68.40
2018-06-01T14:51:51.244Z,66.30
2018-06-01T14:54:19.606Z,63.80
2018-06-01T14:56:47.364Z,64.00
2018-06-01T14:59:14.975Z,63.80
2018-06-01T15:01:42.612Z,64.80
2018-06-01T15:04:10.226Z,62.60
2018-06-01T15:06:37.907Z,64.40
2018-06-01T15:09:05.546Z,65.00
2018-06-01T15:11:33.906Z,65.40
2018-06-01T15:14:01.592Z,65.80
2018-06-01T15:16:29.188Z,62.00
2018-06-01T15:18:56.786Z,63.00
2018-06-01T15:21:24.398Z,62.80
2018-06-01T15:23:52.758Z,63.60
2018-06-01T15:26:20.358Z,63.50
2018-06-01T15:28:47.978Z,64.90
2018-06-01T15:31:15.594Z,64.00
2018-06-01T15:33:43.198Z,64.40
2018-06-01T15:36:10.817Z,65.20
2018-06-01T15:38:38.414Z,65.70
2018-06-01T15:41:06.157Z,66.90
2018-06-01T15:43:33.643Z,65.20
2018-06-01T15:46:01.238Z,68.80
2018-06-01T15:48:28.829Z,70.80
2018-06-01T15:50:56.447Z,69.10
2018-06-01T15:53:24.042Z,71.80
2018-06-01T15:55:51.656Z,72.30
2018-06-01T15:58:19.278Z,76.60
2018-06-01T16:00:47.642Z,79.60
2018-06-01T16:03:15.242Z,78.80
2018-06-01T16:05:42.880Z,80.30
2018-06-01T16:08:10.477Z,82.00
2018-06-01T16:10:38.878Z,83.00
2018-06-01T16:13:06.491Z,83.70
2018-06-01T16:15:34.118Z,84.30
2018-06-01T16:18:01.710Z,85.00
2018-06-01T16:20:30.083Z,89.50
2018-06-01T16:22:57.706Z,89.50
2018-06-01T16:25:25.302Z,87.80
2018-06-01T16:27:53.688Z,93.50
2018-06-01T16:30:21.299Z,93.50
2018-06-01T16:32:48.943Z,88.50
2018-06-01T16:35:17.322Z,89.70
2018-06-01T16:37:44.918Z,89.70
2018-06-01T16:40:12.518Z,90.70
2018-06-01T16:42:40.119Z,90.10
2018-06-01T16:45:07.715Z,90.50
2018-06-01T16:47:35.334Z,90.40
2018-06-01T16:50:02.991Z,90.90
2018-06-01T16:52:30.629Z,90.40
2018-06-01T16:54:58.255Z,90.20
2018-06-01T16:57:26.632Z,90.20
2018-06-01T16:59:55.066Z,93.60
2018-06-01T17:02:22.654Z,93.60
2018-06-01T17:04:50.258Z,92.10
2018-06-01T17:07:17.874Z,92.00
2018-06-01T17:09:45.502Z,91.70
2018-06-01T17:12:13.114Z,92.40
2018-06-01T17:14:40.739Z,93.10
2018-06-01T17:17:08.331Z,96.10
2018-06-01T17:19:35.934Z,94.40
2018-06-01T17:22:03.546Z,95.60
2018-06-01T17:24:31.138Z,96.10
2018-06-01T17:26:59.510Z,97.20
2018-06-01T17:29:27.102Z,97.30
2018-06-01T17:31:54.738Z,96.20
2018-06-01T17:34:22.382Z,95.50
2018-06-01T17:36:50.015Z,95.90
2018-06-01T17:39:17.612Z,93.50
2018-06-01T17:41:45.218Z,94.30
2018-06-01T17:44:12.821Z,93.10
2018-06-01T17:46:40.438Z,95.90
2018-06-01T17:49:08.047Z,96.20
2018-06-01T17:51:36.406Z,96.90
2018-06-01T17:54:04.028Z,96.80
2018-06-01T17:56:32.400Z,95.60
2018-06-01T17:59:00.006Z,95.50
2018-06-01T18:01:27.653Z,94.50
2018-06-01T18:03:55.257Z,94.00
2018-06-01T18:06:22.854Z,94.10
2018-06-01T18:08:50.449Z,97.90
2018-06-01T18:11:18.062Z,96.10
2018-06-01T18:13:45.667Z,98.80
2018-06-01T18:16:13.278Z,99.30
2018-06-01T18:18:40.901Z,99.50
2018-06-01T18:21:09.271Z,99.90
2018-06-01T18:23:37.632Z,99.90
2018-06-01T18:26:05.262Z,99.90
2018-06-01T18:28:33.632Z,99.90
2018-06-01T18:31:01.224Z,99.90
2018-06-01T18:33:28.833Z,99.90
2018-06-01T18:35:56.432Z,99.90
2018-06-01T18:38:24.038Z,99.90
2018-06-01T18:40:52.406Z,99.90
2018-06-01T18:43:20.783Z,99.90
2018-06-01T18:45:49.142Z,99.90
2018-06-01T18:48:16.741Z,99.90
2018-06-01T18:50:44.340Z,99.90
2018-06-01T18:53:11.939Z,99.90
2018-06-01T18:55:40.315Z,99.90
2018-06-01T18:58:07.967Z,99.90
2018-06-01T19:00:35.574Z,99.90
2018-06-01T19:03:03.210Z,99.90
2018-06-01T19:05:31.598Z,99.90
2018-06-01T19:07:59.959Z,99.90
2018-06-01T19:10:28.446Z,99.90
2018-06-01T19:12:56.037Z,99.90
2018-06-01T19:15:23.642Z,99.90
2018-06-01T19:17:51.274Z,99.90
2018-06-01T19:20:18.866Z,99.90
2018-06-01T19:22:47.228Z,99.90
2018-06-01T19:25:14.853Z,99.90
2018-06-01T19:27:42.466Z,99.90
2018-06-01T19:30:10.083Z,99.90
2018-06-01T19:32:37.698Z,99.90
2018-06-01T19:35:05.298Z,99.90
2018-06-01T19:37:32.904Z,99.90
2018-06-01T19:40:00.523Z,99.90
2018-06-01T19:42:28.886Z,99.90
2018-06-01T19:44:56.482Z,99.90
2018-06-01T19:47:24.082Z,99.90
2018-06-01T19:49:52.437Z,99.90
2018-06-01T19:52:20.030Z,99.90
2018-06-01T19:54:47.635Z,99.90
2018-06-01T19:57:15.231Z,99.90
2018-06-01T19:59:43.598Z,99.90
2018-06-01T20:02:11.266Z,99.90
2018-06-01T20:04:39.678Z,99.90
2018-06-01T20:07:07.272Z,99.90
2018-06-01T20:09:34.873Z,99.90
2018-06-01T20:12:03.343Z,99.90
2018-06-01T20:14:31.723Z,99.90
2018-06-01T20:16:59.382Z,99.90
2018-06-01T20:19:28.479Z,99.90
2018-06-01T20:21:56.088Z,99.90
2018-06-01T20:24:24.537Z,99.90
2018-06-01T20:26:52.895Z,99.90
2018-06-01T20:29:20.490Z,99.90
2018-06-01T20:31:48.099Z,99.90
2018-06-01T20:34:15.734Z,99.90
2018-06-01T20:36:43.334Z,99.90
2018-06-01T20:39:10.947Z,99.90
2018-06-01T20:41:38.542Z,99.90
2018-06-01T20:44:06.206Z,99.90
2018-06-01T20:46:33.862Z,99.90
2018-06-01T20:49:01.481Z,99.90
2018-06-01T20:51:29.102Z,99.90
2018-06-01T20:53:56.715Z,99.90
2018-06-01T20:56:24.324Z,99.90
2018-06-01T20:58:52.691Z,99.90
2018-06-01T21:01:20.299Z,99.90
2018-06-01T21:03:47.885Z,99.90
2018-06-01T21:06:15.474Z,99.90
2018-06-01T21:08:43.092Z,99.90
2018-06-01T21:11:10.686Z,99.90
2018-06-01T21:13:38.296Z,99.90
2018-06-01T21:16:05.929Z,99.90
2018-06-01T21:18:34.286Z,99.90
2018-06-01T21:21:01.889Z,99.90
2018-06-01T21:23:29.501Z,99.90
2018-06-01T21:25:57.096Z,99.90
2018-06-01T21:28:24.711Z,99.90
2018-06-01T21:30:52.347Z,99.90
2018-06-01T21:33:20.003Z,99.90
2018-06-01T21:35:47.594Z,99.90
2018-06-01T21:38:15.194Z,99.90
2018-06-01T21:40:43.555Z,99.90
2018-06-01T21:43:11.142Z,99.90
2018-06-01T21:45:39.539Z,99.90
2018-06-01T21:48:07.234Z,99.90
2018-06-01T21:50:34.862Z,99.90
2018-06-01T21:53:02.462Z,99.90
2018-06-01T21:55:30.054Z,99.90
2018-06-01T21:57:58.417Z,99.90
2018-06-01T22:00:26.022Z,99.90
2018-06-01T22:02:53.610Z,99.90
2018-06-01T22:05:21.238Z,99.90
2018-06-01T22:07:48.869Z,99.90
2018-06-01T22:10:17.231Z,99.90
2018-06-01T22:12:44.843Z,99.90
2018-06-01T22:15:12.452Z,99.90
2018-06-01T22:17:40.046Z,99.90
2018-06-01T22:20:07.650Z,99.90
2018-06-01T22:22:35.255Z,99.90
2018-06-01T22:25:02.854Z,99.90
2018-06-01T22:27:30.489Z,99.90
2018-06-01T22:29:58.130Z,99.90
2018-06-01T22:32:26.494Z,99.90
2018-06-01T22:34:54.099Z,99.90
2018-06-01T22:37:21.707Z,99.90
2018-06-01T22:39:49.301Z,99.90
2018-06-01T22:42:16.907Z,99.90
2018-06-01T22:44:44.535Z,99.90
2018-06-01T22:47:12.211Z,99.90
2018-06-01T22:49:39.815Z,99.90
2018-06-01T22:52:08.199Z,99.90
2018-06-01T22:54:36.562Z,99.90
2018-06-01T22:57:04.159Z,99.90
2018-06-01T22:59:31.778Z,99.90
2018-06-01T23:01:59.374Z,99.90
2018-06-01T23:04:27.767Z,99.90
2018-06-01T23:06:55.390Z,99.90
2018-06-01T23:09:22.978Z,99.90
2018-06-01T23:11:50.594Z,99.90
2018-06-01T23:14:18.218Z,99.90
2018-06-01T23:16:45.818Z,99.90
2018-06-01T23:19:13.478Z,99.90
2018-06-01T23:21:41.108Z,99.90
2018-06-01T23:24:08.705Z,99.90
2018-06-01T23:26:36.306Z,99.90
2018-06-01T23:29:03.918Z,99.90
2018-06-01T23:31:31.555Z,99.90
2018-06-01T23:33:59.186Z,99.90
2018-06-01T23:36:26.809Z,99.90
2018-06-01T23:38:54.415Z,99.90
2018-06-01T23:41:22.013Z,99.90
2018-06-01T23:43:49.626Z,99.90
2018-06-01T23:46:17.217Z,99.90
2018-06-01T23:48:44.817Z,99.90
2018-06-01T23:51:12.427Z,99.90
2018-06-01T23:53:40.022Z,99.90
2018-06-01T23:56:07.621Z,99.90
2018-06-01T23:58:35.226Z,99.90
